Colorado Springs, CO

06:00 PM MDT on July 29, 2015 (GMT -0600)
Crown Hill Mesa | | Change Station
CLOSE
Current Station
Personal Weather Stations
Location: Colorado Springs, CO
Elevation: 6171 ft
Nearby Weather Stations

Elev 6171 ft 38.82 °N, 104.85 °W | Updated 12 seconds ago

Mawingu sehemu ndogo
Mawingu sehemu ndogo
76.3 °F
Feels Like 78 °F
N
9.8
Upepo Ya mabadiliko Upepo from Mashariki-Kusini-Mashariki (MKM)
Gusts 15.0 mph

Leo
High -- | Low -- °F
--% Chance of Precip.
Yesterday
High -- | Low -- °F
Precip. -- nchi
5:57 AM 8:13 PM
Waxing Gibbous, 97% visible
Shinikizo 30.11 nchi
Mwangaza 10.0 meli
Clouds Few 6000 ft
Mawingu ya hapa na pale 13000 ft
Mawingu sehemu nyingi 22000 ft
Faharasi ya Ujoto 78 °F
Kilele cha umande 52 °F
Unyevu 42%
Rainfall 0.00 nchi
Snow Depth Not available.
UV 1.0 out of 12
Pollen 4.90 out of 12
Air Quality Not available.
Flu Activity Not available.
METAR KCOS 292354Z 15013KT 10SM FEW060 SCT130 BKN220 25/09 A3034 RMK AO2 SLP195 OCNL LTGICCG DSNT NW CB DSNT NW MOV E T02500089 10267 20211 55012

More Conditions Fewer Conditions

Shinikizo 30.11 nchi
Mwangaza 10.0 meli
Clouds Few 6000 ft
Mawingu ya hapa na pale 13000 ft
Mawingu sehemu nyingi 22000 ft
Faharasi ya Ujoto 78 °F
Kilele cha umande 52 °F
Unyevu 42%
Rainfall 0.00 nchi
Snow Depth Not available.
UV 1.0 out of 12
Pollen 4.90 out of 12
Air Quality Not available.
Flu Activity Not available.
METAR KCOS 292354Z 15013KT 10SM FEW060 SCT130 BKN220 25/09 A3034 RMK AO2 SLP195 OCNL LTGICCG DSNT NW CB DSNT NW MOV E T02500089 10267 20211 55012

More Conditions Fewer Conditions

10-Day Weather Forecast

×

Almanac

Astronomy

Jul. 29, 2015 Rise Set
Actual Time
Civil Twilight
Nautical Twilight
Astronomical Twilight
Moon
Length Of Visible Light
Length of Day
Tomorrow will be .
, % of the Moon is Illuminated

Today's Extremes

State Highs State Lows

Community

WunderPhotos

Upload Photos

1,842,204 photos uploaded!

WunderBlogs® & News

Nearby

Air Quality

  Air Quality AQ Index Pollutant
Not available.

Snow Depth

Station Depth Elevation

Earthquake Activity

City Distance Mag. Time & Date
Minimum magnitude displayed is 2.5.

Coastal Water Temperatures

Mahali Hali ya Hewa

Stations

Nearby Weather Stations

Station Location Temp Ubaridi wa upepo Kilele cha umande Unyevu Upepo Precip. Elev Imesharekibishwa Type